Time;durP1;ratioP1;P1;durP2;ratioP2;P2;SDS_P1;SDS_P2;PMS_P1;PMS_P2;Temp;Humidity;BMP_temperature;BMP_pressure;BME280_temperature;BME280_humidity;BME280_pressure;Samples;Min_cycle;Max_cycle;Signal;HPM_P1;HPM_P2
2023/04/01 00:01:08;;;;;;;8.38;3.13;;;10.10;99.90;;;;;;4994577;28;20045;-82
2023/04/01 00:03:35;;;;;;;6.30;2.42;;;10.10;99.90;;;;;;4962045;28;20721;-84
2023/04/01 00:06:01;;;;;;;7.28;2.42;;;10.10;99.90;;;;;;4982871;28;20041;-85
2023/04/01 00:08:28;;;;;;;6.85;2.70;;;10.10;99.90;;;;;;4983588;28;20057;-82
2023/04/01 00:10:55;;;;;;;12.82;4.70;;;10.10;99.90;;;;;;4983813;28;20907;-91
2023/04/01 00:13:22;;;;;;;9.30;3.40;;;10.10;99.90;;;;;;4999163;28;20045;-92
2023/04/01 00:15:49;;;;;;;5.55;3.08;;;10.10;99.90;;;;;;5001291;28;20819;-83
2023/04/01 00:18:16;;;;;;;6.57;3.35;;;10.10;99.90;;;;;;4984621;28;20064;-82
2023/04/01 00:20:47;;;;;;;8.48;4.07;;;10.10;99.90;;;;;;4980189;28;20038;-86
2023/04/01 00:23:14;;;;;;;5.60;3.75;;;10.10;99.90;;;;;;4993108;28;20533;-85
2023/04/01 00:25:41;;;;;;;6.32;3.38;;;10.10;99.90;;;;;;4981218;28;20038;-80
2023/04/01 00:28:07;;;;;;;5.47;2.55;;;10.10;99.90;;;;;;4983046;28;20042;-79
2023/04/01 00:30:36;;;;;;;6.68;3.17;;;10.10;99.90;;;;;;4980865;28;20487;-88
2023/04/01 00:33:03;;;;;;;8.73;5.10;;;10.10;99.90;;;;;;4963128;28;20038;-83
2023/04/01 00:35:29;;;;;;;7.85;4.18;;;10.10;99.90;;;;;;4987466;28;20030;-82
2023/04/01 00:37:56;;;;;;;8.88;4.63;;;10.10;99.90;;;;;;4984387;28;20040;-85
2023/04/01 00:40:42;;;;;;;6.85;3.53;;;10.10;99.90;;;;;;4984404;28;20042;-91
2023/04/01 00:43:19;;;;;;;8.88;4.88;;;10.10;99.90;;;;;;4980814;28;20050;-91
2023/04/01 00:45:47;;;;;;;6.47;3.92;;;10.10;99.90;;;;;;4983113;28;20339;-81
2023/04/01 00:48:17;;;;;;;5.57;3.92;;;10.10;99.90;;;;;;4984992;28;20049;-84
2023/04/01 00:51:09;;;;;;;7.90;5.43;;;10.10;99.90;;;;;;4981229;28;20058;-88
2023/04/01 00:53:41;;;;;;;9.32;6.55;;;10.10;99.90;;;;;;4981985;28;20732;-82
2023/04/01 00:56:15;;;;;;;8.35;4.72;;;10.10;99.90;;;;;;4970672;28;20042;-80
2023/04/01 00:58:47;;;;;;;9.75;6.55;;;10.10;99.90;;;;;;4985925;28;20060;-83
2023/04/01 01:01:15;;;;;;;8.10;6.13;;;10.10;99.90;;;;;;4980427;28;20042;-86
2023/04/01 01:03:41;;;;;;;9.70;6.45;;;10.10;99.90;;;;;;4980231;28;20046;-78
2023/04/01 01:06:23;;;;;;;13.02;7.95;;;10.10;99.90;;;;;;4985853;28;20033;-82
2023/04/01 01:09:00;;;;;;;17.77;12.03;;;10.10;99.90;;;;;;4971266;28;20046;-78
2023/04/01 01:11:35;;;;;;;15.27;9.73;;;10.10;99.90;;;;;;4977898;28;20117;-86
2023/04/01 01:14:12;;;;;;;13.88;10.40;;;10.20;99.90;;;;;;4968583;28;20048;-89
2023/04/01 01:16:44;;;;;;;21.55;13.13;;;10.20;99.90;;;;;;4987460;28;20038;-81
2023/04/01 01:19:59;;;;;;;23.40;14.68;;;10.20;99.90;;;;;;4988361;28;20815;-81
2023/04/01 01:22:36;;;;;;;27.50;16.10;;;10.20;99.90;;;;;;4981012;28;20511;-80
2023/04/01 01:25:35;;;;;;;22.55;14.90;;;10.10;99.90;;;;;;5001021;28;20030;-80
2023/04/01 01:28:26;;;;;;;20.85;13.77;;;10.20;99.90;;;;;;4983031;28;20041;-82
2023/04/01 01:31:01;;;;;;;22.90;15.15;;;10.20;99.90;;;;;;4980604;28;20042;-84
2023/04/01 01:33:36;;;;;;;20.83;14.73;;;10.20;99.90;;;;;;4946925;28;20048;-82
2023/04/01 01:36:09;;;;;;;24.88;19.17;;;10.20;99.90;;;;;;5003799;28;20045;-86
2023/04/01 01:38:36;;;;;;;22.75;16.50;;;10.20;99.90;;;;;;4987631;28;20037;-79
2023/04/01 01:41:06;;;;;;;20.77;13.93;;;10.20;99.90;;;;;;4965969;28;20046;-80
2023/04/01 01:43:39;;;;;;;26.10;16.02;;;10.20;99.90;;;;;;4981091;28;20053;-82
2023/04/01 01:46:11;;;;;;;19.17;14.50;;;10.20;99.90;;;;;;4985013;28;20042;-84
2023/04/01 01:48:40;;;;;;;24.52;16.23;;;10.20;99.90;;;;;;4969303;28;20038;-81
2023/04/01 01:51:06;;;;;;;20.73;14.63;;;10.20;99.90;;;;;;4981460;28;20064;-93
2023/04/01 01:53:34;;;;;;;25.45;16.80;;;10.20;99.90;;;;;;4949455;28;20053;-84
2023/04/01 01:56:00;;;;;;;26.65;16.00;;;10.20;99.90;;;;;;4987141;28;20038;-80
2023/04/01 01:58:40;;;;;;;31.30;18.27;;;10.20;99.90;;;;;;4987632;28;20362;-84
2023/04/01 02:01:11;;;;;;;23.17;15.50;;;10.20;99.90;;;;;;4983136;28;20038;-84
2023/04/01 02:03:40;;;;;;;21.00;14.10;;;10.20;99.90;;;;;;4998441;28;20509;-86
2023/04/01 02:06:11;;;;;;;26.05;17.00;;;10.20;99.90;;;;;;4983664;28;20038;-88
2023/04/01 02:08:49;;;;;;;20.17;13.85;;;10.20;99.90;;;;;;4985258;28;20050;-87
2023/04/01 02:11:21;;;;;;;23.20;13.95;;;10.20;99.90;;;;;;4994738;28;20037;-88
2023/04/01 02:14:06;;;;;;;22.38;11.57;;;10.20;99.90;;;;;;4983304;28;20042;-83
2023/04/01 02:16:37;;;;;;;;;;;10.10;99.90;;;;;;5001703;28;20592;-83
2023/04/01 02:19:07;;;;;;;28.60;12.27;;;10.10;99.90;;;;;;4986317;28;19917;-83
2023/04/01 02:21:35;;;;;;;28.00;13.30;;;10.00;99.90;;;;;;4962260;28;20156;-85
2023/04/01 02:24:05;;;;;;;23.52;11.93;;;10.00;99.90;;;;;;4968681;28;20369;-90
2023/04/01 02:26:34;;;;;;;39.10;13.27;;;10.00;99.90;;;;;;4970504;28;20036;-88
2023/04/01 02:29:03;;;;;;;30.40;11.75;;;10.00;99.90;;;;;;4984255;28;20050;-83
2023/04/01 02:31:31;;;;;;;25.05;10.18;;;10.10;99.90;;;;;;4977178;28;20054;-89
2023/04/01 02:33:58;;;;;;;15.38;7.93;;;10.10;99.90;;;;;;4984328;28;20053;-84
2023/04/01 02:36:24;;;;;;;21.35;8.88;;;10.00;99.90;;;;;;4988690;28;20049;-86
2023/04/01 02:38:52;;;;;;;18.13;8.55;;;10.00;99.90;;;;;;5002996;28;20053;-87
2023/04/01 02:41:18;;;;;;;22.50;9.48;;;10.00;99.90;;;;;;4983707;28;20048;-84
2023/04/01 02:43:44;;;;;;;13.45;7.10;;;10.00;99.90;;;;;;4983581;28;20034;-89
2023/04/01 02:46:11;;;;;;;19.90;9.50;;;10.00;99.90;;;;;;4984768;28;20080;-84
2023/04/01 02:48:38;;;;;;;24.85;10.35;;;10.00;99.90;;;;;;4984116;28;20041;-84
2023/04/01 02:51:04;;;;;;;17.70;8.32;;;10.00;99.90;;;;;;4980072;28;20061;-85
2023/04/01 02:53:31;;;;;;;22.75;9.82;;;10.00;99.90;;;;;;4979129;28;21227;-91
2023/04/01 02:55:57;;;;;;;22.88;9.52;;;10.00;99.90;;;;;;4984703;28;20038;-82
2023/04/01 02:58:23;;;;;;;22.45;9.15;;;10.00;99.90;;;;;;4990509;28;20042;-83
2023/04/01 03:00:50;;;;;;;18.95;8.27;;;10.00;99.90;;;;;;4984699;28;20349;-84
2023/04/01 03:03:16;;;;;;;13.48;6.72;;;10.00;99.90;;;;;;4979756;28;20468;-84
2023/04/01 03:05:43;;;;;;;14.50;7.22;;;10.00;99.90;;;;;;4966879;28;20034;-83
2023/04/01 03:08:10;;;;;;;17.38;8.40;;;10.00;99.90;;;;;;4983790;28;20041;-83
2023/04/01 03:10:36;;;;;;;13.55;6.10;;;9.90;99.90;;;;;;4981705;28;20088;-79
2023/04/01 03:13:03;;;;;;;16.55;6.70;;;9.90;99.90;;;;;;4965663;28;20120;-81
2023/04/01 03:15:30;;;;;;;16.48;7.40;;;10.00;99.90;;;;;;4986536;28;20061;-80
2023/04/01 03:17:56;;;;;;;16.95;8.23;;;10.00;99.90;;;;;;4988329;28;20038;-85
2023/04/01 03:20:22;;;;;;;10.40;5.85;;;10.00;99.90;;;;;;4986206;28;20038;-85
2023/04/01 03:22:49;;;;;;;12.70;6.68;;;10.00;99.90;;;;;;4982135;28;20520;-81
2023/04/01 03:25:17;;;;;;;12.20;6.68;;;9.90;99.90;;;;;;4971297;28;20397;-81
2023/04/01 03:27:44;;;;;;;14.77;7.18;;;9.90;99.90;;;;;;4985302;28;20405;-87
2023/04/01 03:30:11;;;;;;;12.13;6.18;;;10.00;99.90;;;;;;4979337;28;20041;-86
2023/04/01 03:32:46;;;;;;;13.18;7.10;;;9.90;99.90;;;;;;4984164;28;20054;-81
2023/04/01 03:35:12;;;;;;;12.30;6.88;;;9.90;99.90;;;;;;4986073;28;20515;-83
2023/04/01 03:37:39;;;;;;;13.15;7.32;;;9.90;99.90;;;;;;4988347;28;20040;-84
2023/04/01 03:40:06;;;;;;;10.10;6.25;;;9.90;99.90;;;;;;4984108;28;20500;-86
2023/04/01 03:42:32;;;;;;;14.52;7.57;;;9.90;99.90;;;;;;4977114;28;20049;-79
2023/04/01 03:44:59;;;;;;;13.48;7.35;;;9.90;99.90;;;;;;4964832;28;20042;-80
2023/04/01 03:47:25;;;;;;;9.77;6.07;;;9.90;99.90;;;;;;4965706;28;20038;-81
2023/04/01 03:49:51;;;;;;;13.20;7.80;;;9.90;99.90;;;;;;4980233;28;20050;-85
2023/04/01 03:52:18;;;;;;;13.52;8.05;;;9.90;99.90;;;;;;4959091;28;20038;-86
2023/04/01 03:54:44;;;;;;;14.27;8.63;;;9.90;99.90;;;;;;4984426;28;20289;-82
2023/04/01 03:57:10;;;;;;;17.27;10.02;;;9.90;99.90;;;;;;4999350;28;20532;-81
2023/04/01 03:59:37;;;;;;;16.85;9.52;;;9.90;99.90;;;;;;4969399;28;20123;-81
2023/04/01 04:02:05;;;;;;;18.58;10.63;;;9.80;99.90;;;;;;4975902;28;20042;-84
2023/04/01 04:04:32;;;;;;;18.65;10.70;;;9.80;99.90;;;;;;4967128;28;20038;-80
2023/04/01 04:06:58;;;;;;;15.93;9.52;;;9.80;99.90;;;;;;4984025;28;20473;-83
2023/04/01 04:09:25;;;;;;;15.40;8.15;;;9.80;99.90;;;;;;4996826;28;20053;-82
2023/04/01 04:11:52;;;;;;;18.65;10.50;;;9.80;99.90;;;;;;4974978;28;20041;-83
2023/04/01 04:14:18;;;;;;;17.48;10.45;;;9.80;99.90;;;;;;4987371;28;20037;-85
2023/04/01 04:16:46;;;;;;;15.32;10.73;;;9.80;99.90;;;;;;4973104;28;20819;-83
2023/04/01 04:19:12;;;;;;;18.40;9.90;;;9.80;99.90;;;;;;5006438;28;20341;-83
2023/04/01 04:21:40;;;;;;;13.70;8.63;;;9.80;99.90;;;;;;4999447;28;20037;-85
2023/04/01 04:24:07;;;;;;;17.33;9.50;;;9.80;99.90;;;;;;4987818;28;20052;-80
2023/04/01 04:26:53;;;;;;;14.93;9.73;;;9.80;99.90;;;;;;4987785;28;20397;-84
2023/04/01 04:29:20;;;;;;;13.60;8.60;;;9.80;99.90;;;;;;4970666;28;20037;-89
2023/04/01 04:31:46;;;;;;;13.20;9.30;;;9.80;99.90;;;;;;4962520;28;20049;-85
2023/04/01 04:34:12;;;;;;;12.40;8.77;;;9.80;99.90;;;;;;4984209;28;20126;-81
2023/04/01 04:36:39;;;;;;;16.23;10.05;;;9.80;99.90;;;;;;4969909;28;20037;-80
2023/04/01 04:39:05;;;;;;;24.02;12.75;;;9.80;99.90;;;;;;4987619;28;20045;-79
2023/04/01 04:41:33;;;;;;;18.25;10.65;;;9.80;99.90;;;;;;4981459;28;20494;-82
2023/04/01 04:44:00;;;;;;;18.15;11.95;;;9.80;99.90;;;;;;4985248;28;20046;-87
2023/04/01 04:46:26;;;;;;;15.85;9.98;;;9.80;99.90;;;;;;5000132;28;20037;-81
2023/04/01 04:48:59;;;;;;;22.73;13.65;;;9.80;99.90;;;;;;4984557;28;20046;-84
2023/04/01 04:51:26;;;;;;;25.00;14.27;;;9.80;99.90;;;;;;4978804;28;20046;-91
2023/04/01 04:53:52;;;;;;;20.23;12.75;;;9.80;99.90;;;;;;4983007;28;20056;-82
2023/04/01 04:56:21;;;;;;;21.67;13.20;;;9.80;99.90;;;;;;5001410;28;20037;-85
2023/04/01 04:59:03;;;;;;;18.73;12.02;;;9.70;99.90;;;;;;4971931;28;20491;-79
2023/04/01 05:01:41;;;;;;;15.77;9.80;;;9.70;99.90;;;;;;4965010;28;20041;-85
2023/04/01 05:04:07;;;;;;;11.13;7.88;;;9.70;99.90;;;;;;4985850;28;20606;-79
2023/04/01 05:06:33;;;;;;;13.85;9.57;;;9.80;99.90;;;;;;4970071;28;20038;-81
2023/04/01 05:09:00;;;;;;;20.42;11.48;;;9.80;99.90;;;;;;4970695;28;20046;-82
2023/04/01 05:11:27;;;;;;;13.05;8.82;;;9.80;99.90;;;;;;4982549;28;20056;-84
2023/04/01 05:13:54;;;;;;;15.18;9.85;;;9.80;99.90;;;;;;5000125;28;20038;-88
2023/04/01 05:16:21;;;;;;;10.70;7.88;;;9.80;99.90;;;;;;4972199;28;20038;-84
2023/04/01 05:18:47;;;;;;;10.68;7.32;;;9.80;99.90;;;;;;5005078;28;20060;-82
2023/04/01 05:21:15;;;;;;;11.90;8.30;;;9.80;99.90;;;;;;4983716;28;20046;-85
2023/04/01 05:23:42;;;;;;;9.98;7.10;;;9.80;99.90;;;;;;4963752;28;20092;-86
2023/04/01 05:26:12;;;;;;;11.85;8.55;;;9.80;99.90;;;;;;4985180;28;20044;-87
2023/04/01 05:28:39;;;;;;;12.45;7.93;;;9.80;99.90;;;;;;4968715;28;20044;-80
2023/04/01 05:31:06;;;;;;;13.52;9.30;;;9.90;99.90;;;;;;4982087;28;20029;-92
2023/04/01 05:33:39;;;;;;;10.02;6.68;;;9.90;99.90;;;;;;4998552;28;20038;-83
2023/04/01 05:36:16;;;;;;;7.47;5.70;;;9.90;99.90;;;;;;4983874;28;20431;-82
2023/04/01 05:38:45;;;;;;;8.10;5.20;;;9.90;99.90;;;;;;4987531;28;20049;-83
2023/04/01 05:41:12;;;;;;;7.57;4.97;;;9.90;99.90;;;;;;4970559;28;20512;-79
2023/04/01 05:43:43;;;;;;;8.35;5.80;;;9.90;99.90;;;;;;5001906;28;20057;-78
2023/04/01 05:46:29;;;;;;;7.57;4.88;;;9.90;99.90;;;;;;4990092;28;20049;-87
2023/04/01 05:49:03;;;;;;;7.82;5.18;;;9.90;99.90;;;;;;4969488;28;20044;-81
2023/04/01 05:51:29;;;;;;;9.52;5.97;;;9.90;99.90;;;;;;4982314;28;20068;-84
2023/04/01 05:53:56;;;;;;;11.82;6.20;;;9.90;99.90;;;;;;4981720;28;20053;-88
2023/04/01 05:56:22;;;;;;;12.15;6.47;;;9.90;99.90;;;;;;4983091;28;20564;-79
2023/04/01 05:58:53;;;;;;;15.27;7.53;;;9.90;99.90;;;;;;4968027;28;20045;-89
2023/04/01 06:01:22;;;;;;;21.63;8.85;;;9.90;99.90;;;;;;4985321;28;20057;-82
2023/04/01 06:03:48;;;;;;;15.57;7.50;;;9.90;99.90;;;;;;4986289;28;20044;-84
2023/04/01 06:06:21;;;;;;;22.92;9.45;;;9.80;99.90;;;;;;4984516;28;20038;-79
2023/04/01 06:08:49;;;;;;;18.33;7.88;;;9.90;99.90;;;;;;4984092;28;21012;-83
2023/04/01 06:11:34;;;;;;;19.13;7.85;;;9.90;99.90;;;;;;4979682;28;20611;-85
2023/04/01 06:14:27;;;;;;;19.88;8.27;;;9.90;99.90;;;;;;4995815;28;20390;-85
2023/04/01 06:17:03;;;;;;;38.15;11.73;;;9.90;99.90;;;;;;4998016;28;20049;-81
2023/04/01 06:19:41;;;;;;;32.80;11.73;;;9.90;99.90;;;;;;5000312;28;21306;-89
2023/04/01 06:22:27;;;;;;;35.55;11.77;;;9.90;99.90;;;;;;4978995;28;20505;-80
2023/04/01 06:25:05;;;;;;;41.45;15.05;;;9.90;99.90;;;;;;4986555;28;20041;-82
2023/04/01 06:27:57;;;;;;;32.05;10.05;;;9.90;99.90;;;;;;4966129;28;20034;-84
2023/04/01 06:30:23;;;;;;;35.05;10.65;;;9.90;99.90;;;;;;4981042;28;20049;-81
2023/04/01 06:33:08;;;;;;;41.58;12.50;;;9.90;99.90;;;;;;4979303;28;20042;-83
2023/04/01 06:36:03;;;;;;;35.15;11.50;;;10.00;99.90;;;;;;4980147;28;20061;-79
2023/04/01 06:38:41;;;;;;;38.53;12.95;;;10.00;99.90;;;;;;4978150;28;20489;-83
2023/04/01 06:41:35;;;;;;;35.00;10.95;;;10.00;99.90;;;;;;4981174;28;20041;-79
2023/04/01 06:44:28;;;;;;;35.60;11.27;;;10.10;99.90;;;;;;4986106;28;20068;-81
2023/04/01 06:47:50;;;;;;;40.88;12.73;;;10.10;99.90;;;;;;4984078;28;20049;-84
2023/04/01 06:50:52;;;;;;;32.13;10.85;;;10.20;99.90;;;;;;4971772;28;20418;-85
2023/04/01 06:54:04;;;;;;;38.30;11.80;;;10.20;99.90;;;;;;4977213;28;20045;-91
2023/04/01 06:56:57;;;;;;;31.40;10.98;;;10.30;99.90;;;;;;4981751;28;20057;-82
2023/04/01 06:59:32;;;;;;;35.03;11.15;;;10.40;99.90;;;;;;4997492;28;20049;-83
2023/04/01 07:02:16;;;;;;;34.63;11.40;;;10.40;99.90;;;;;;4975069;28;20046;-80
2023/04/01 07:04:48;;;;;;;35.00;11.63;;;10.40;99.90;;;;;;4985261;28;20042;-78
2023/04/01 07:07:25;;;;;;;30.77;11.27;;;10.50;99.90;;;;;;4997323;28;20042;-80
2023/04/01 07:09:59;;;;;;;;;;;10.50;99.90;;;;;;4976178;28;20041;-82
2023/04/01 07:12:31;;;;;;;24.75;8.85;;;10.50;99.90;;;;;;4991771;28;19921;-84
2023/04/01 07:15:30;;;;;;;25.58;10.50;;;10.50;99.90;;;;;;4970680;28;20045;-83
2023/04/01 07:18:03;;;;;;;24.75;9.13;;;10.50;99.90;;;;;;4980913;28;20042;-88
2023/04/01 07:20:32;;;;;;;20.50;8.73;;;10.50;99.90;;;;;;4976082;28;20055;-86
2023/04/01 07:23:04;;;;;;;20.48;8.10;;;10.50;99.90;;;;;;4962218;28;20038;-80
2023/04/01 07:26:33;;;;;;;19.17;7.45;;;10.60;99.90;;;;;;4989869;28;20645;-88
2023/04/01 07:29:11;;;;;;;17.83;6.97;;;10.60;99.90;;;;;;4964610;28;20045;-83
2023/04/01 07:31:44;;;;;;;15.97;6.50;;;10.70;99.90;;;;;;4978896;28;20038;-90
2023/04/01 07:34:23;;;;;;;15.63;6.22;;;10.80;99.90;;;;;;4967390;28;20046;-79
2023/04/01 07:37:12;;;;;;;15.48;5.22;;;10.90;99.90;;;;;;4984342;28;20575;-88
2023/04/01 07:40:16;;;;;;;12.80;5.45;;;10.90;99.90;;;;;;4981561;28;20042;-80
2023/04/01 07:43:07;;;;;;;11.77;3.80;;;10.90;99.90;;;;;;4963523;28;20057;-81
2023/04/01 07:45:43;;;;;;;11.82;3.78;;;10.90;99.90;;;;;;4992386;28;20045;-82
2023/04/01 07:48:31;;;;;;;;;;;10.90;99.90;;;;;;4974034;28;20547;-78
2023/04/01 07:51:31;;;;;;;8.30;2.80;;;11.00;99.90;;;;;;4971222;28;19925;-87
2023/04/01 07:53:57;;;;;;;7.05;2.53;;;11.20;99.90;;;;;;4979552;28;20034;-85
2023/04/01 07:57:01;;;;;;;8.32;2.97;;;11.30;99.90;;;;;;4982158;28;20030;-86
2023/04/01 07:59:51;;;;;;;8.88;2.90;;;11.40;99.90;;;;;;4965229;28;20084;-86
2023/04/01 08:03:16;;;;;;;7.40;3.13;;;11.40;99.90;;;;;;4975993;28;20034;-84
2023/04/01 08:06:01;;;;;;;6.75;2.75;;;11.30;99.90;;;;;;4984113;28;20037;-83
2023/04/01 08:08:38;;;;;;;8.50;4.05;;;11.30;99.90;;;;;;4966457;28;20663;-86
2023/04/01 08:11:49;;;;;;;8.38;4.38;;;11.30;99.90;;;;;;4949618;28;20520;-86
2023/04/01 08:14:49;;;;;;;8.32;3.20;;;11.40;99.90;;;;;;4980131;28;20048;-80
2023/04/01 08:17:54;;;;;;;7.38;3.45;;;11.40;99.90;;;;;;4990961;28;20049;-80
2023/04/01 08:21:00;;;;;;;9.20;5.05;;;11.40;99.90;;;;;;4993794;28;20042;-85
2023/04/01 08:23:28;;;;;;;6.45;3.40;;;11.40;99.90;;;;;;4977833;28;20037;-81
2023/04/01 08:26:17;;;;;;;10.20;4.80;;;11.40;99.90;;;;;;4986156;28;20038;-86
2023/04/01 08:29:06;;;;;;;8.98;4.20;;;11.50;99.90;;;;;;4986220;28;20049;-87
2023/04/01 08:40:02;;;;;;;6.75;3.08;;;11.70;99.90;;;;;;4956589;22;20437;-77
2023/04/01 08:42:48;;;;;;;6.13;2.75;;;11.70;99.90;;;;;;5014512;28;20040;-77
2023/04/01 08:45:40;;;;;;;6.65;2.75;;;11.70;99.90;;;;;;5005565;28;20037;-77
2023/04/01 08:48:15;;;;;;;5.30;2.78;;;11.80;99.90;;;;;;4981557;28;22898;-76
2023/04/01 08:50:54;;;;;;;3.72;1.60;;;11.80;99.90;;;;;;5002584;28;20388;-77
2023/04/01 08:53:59;;;;;;;3.55;1.50;;;11.80;99.90;;;;;;5013102;28;20048;-76
2023/04/01 10:20:55;;;;;;;5.38;2.92;;;11.40;99.90;;;;;;5006921;22;21805;-77
2023/04/01 10:23:48;;;;;;;7.60;4.00;;;11.30;99.90;;;;;;5014351;28;20071;-77
2023/04/01 10:26:53;;;;;;;7.85;4.40;;;11.40;99.90;;;;;;5004419;28;20041;-78
2023/04/01 10:29:41;;;;;;;7.28;4.22;;;11.40;99.90;;;;;;5023351;28;20047;-77
2023/04/01 10:32:11;;;;;;;8.23;4.80;;;11.40;99.90;;;;;;5017590;28;20055;-78
2023/04/01 10:34:56;;;;;;;7.82;4.47;;;11.40;99.90;;;;;;5001674;28;20040;-79
2023/04/01 10:38:07;;;;;;;8.27;4.75;;;11.50;99.90;;;;;;5021498;28;20029;-79
2023/04/01 10:41:09;;;;;;;8.55;4.18;;;11.60;99.90;;;;;;4992777;28;20056;-78
2023/04/01 10:44:17;;;;;;;8.60;5.22;;;11.70;99.90;;;;;;5005825;28;20140;-77
2023/04/01 10:46:59;;;;;;;8.98;5.07;;;12.00;99.90;;;;;;5020426;28;20821;-78
2023/04/01 10:49:57;;;;;;;9.33;5.40;;;12.30;99.90;;;;;;5022050;28;20040;-78
2023/04/01 10:52:42;;;;;;;9.52;4.90;;;12.50;99.90;;;;;;4977221;28;20772;-78
2023/04/01 10:56:09;;;;;;;11.35;6.05;;;12.60;99.90;;;;;;5035562;28;20040;-79
2023/04/01 10:59:42;;;;;;;7.28;4.57;;;12.70;99.90;;;;;;5001643;28;20043;-79
2023/04/01 11:03:08;;;;;;;6.03;3.65;;;12.70;99.90;;;;;;4997992;28;20041;-80
2023/04/01 11:06:31;;;;;;;7.88;3.75;;;12.50;99.90;;;;;;4983358;28;20538;-79
2023/04/01 11:09:30;;;;;;;6.50;4.13;;;12.40;99.90;;;;;;4999474;28;20040;-79
2023/04/01 11:12:22;;;;;;;9.48;5.60;;;12.40;99.90;;;;;;5025416;28;20051;-78
2023/04/01 11:15:17;;;;;;;7.45;4.95;;;12.30;99.90;;;;;;4983727;28;21470;-78
2023/04/01 11:17:49;;;;;;;9.60;5.68;;;12.30;99.90;;;;;;4999588;28;20040;-78
2023/04/01 11:20:51;;;;;;;8.15;5.35;;;12.30;99.90;;;;;;5017884;28;20056;-79
2023/04/01 11:23:34;;;;;;;6.25;4.57;;;12.30;99.90;;;;;;5014020;28;20047;-79
2023/04/01 11:26:06;;;;;;;6.63;3.20;;;12.30;99.90;;;;;;5000870;28;20048;-78
2023/04/01 11:29:19;;;;;;;2.53;1.45;;;12.20;99.90;;;;;;5016042;28;20041;-78
2023/04/01 11:32:02;;;;;;;1.52;0.85;;;12.10;99.90;;;;;;4991165;28;20098;-79
2023/04/01 11:34:41;;;;;;;1.30;0.60;;;11.90;99.90;;;;;;4998636;28;20033;-79
2023/04/01 11:37:56;;;;;;;1.10;0.47;;;11.80;99.90;;;;;;5013750;28;20119;-79
2023/04/01 11:41:15;;;;;;;1.00;0.60;;;11.80;99.90;;;;;;5033404;28;20059;-81
2023/04/01 11:44:24;;;;;;;0.65;0.30;;;11.70;99.90;;;;;;5023964;28;20496;-81
2023/04/01 11:47:22;;;;;;;1.52;0.45;;;11.60;99.90;;;;;;4997081;28;20126;-80
2023/04/01 11:50:07;;;;;;;0.95;0.40;;;11.60;99.90;;;;;;4996593;28;20044;-82
2023/04/01 11:53:15;;;;;;;1.00;0.60;;;11.50;99.90;;;;;;5006362;28;20037;-81
2023/04/01 11:55:54;;;;;;;1.00;0.60;;;11.50;99.90;;;;;;4993649;28;20055;-80
2023/04/01 11:58:36;;;;;;;1.67;0.80;;;11.40;99.90;;;;;;4998646;28;20040;-80
2023/04/01 12:01:07;;;;;;;0.90;0.50;;;11.40;99.90;;;;;;4999750;28;20029;-81
2023/04/01 12:03:56;;;;;;;1.13;0.50;;;11.40;99.90;;;;;;5011246;28;20040;-80
2023/04/01 12:06:40;;;;;;;2.15;0.77;;;11.50;99.90;;;;;;5017302;28;20036;-79
2023/04/01 12:09:10;;;;;;;2.25;0.63;;;11.50;99.90;;;;;;5012662;28;20040;-80
2023/04/01 12:11:45;;;;;;;2.45;0.50;;;11.40;99.90;;;;;;5027094;28;20044;-81
2023/04/01 12:14:26;;;;;;;1.58;0.65;;;11.40;99.90;;;;;;5009826;28;20043;-80
2023/04/01 12:17:15;;;;;;;1.25;0.70;;;11.40;99.90;;;;;;5014719;28;20048;-81
2023/04/01 12:20:10;;;;;;;3.70;0.80;;;11.30;99.90;;;;;;4996389;28;20044;-79
2023/04/01 12:22:59;;;;;;;1.33;0.70;;;11.30;99.90;;;;;;5012093;28;20029;-80
2023/04/01 12:25:52;;;;;;;1.70;0.70;;;11.30;99.90;;;;;;5018055;28;20033;-81
2023/04/01 12:28:18;;;;;;;;;;;11.30;99.90;;;;;;5016084;28;20041;-78
2023/04/01 12:30:47;;;;;;;1.70;0.80;;;11.30;99.90;;;;;;4980903;28;19924;-80
2023/04/01 12:33:32;;;;;;;2.53;1.50;;;11.40;99.90;;;;;;5027021;28;20062;-80
2023/04/01 12:36:07;;;;;;;1.67;1.00;;;11.40;99.90;;;;;;4999336;28;20049;-79
2023/04/01 12:38:48;;;;;;;3.72;2.50;;;11.40;99.90;;;;;;5015862;28;21188;-78
2023/04/01 12:41:45;;;;;;;2.40;1.63;;;11.50;99.90;;;;;;5000121;28;20041;-78
2023/04/01 12:44:46;;;;;;;2.83;2.03;;;11.50;99.90;;;;;;4987909;28;20044;-77
2023/04/01 12:47:22;;;;;;;3.03;1.52;;;11.60;99.90;;;;;;5018677;28;20037;-77
2023/04/01 12:50:07;;;;;;;3.80;2.20;;;11.60;99.90;;;;;;5013181;28;20036;-78
2023/04/01 12:53:17;;;;;;;2.40;1.25;;;11.70;99.90;;;;;;5032719;28;20033;-78
2023/04/01 12:55:52;;;;;;;2.63;1.58;;;11.80;99.90;;;;;;5017516;28;20068;-79
2023/04/01 12:58:33;;;;;;;2.25;1.27;;;11.80;99.90;;;;;;5015765;28;20816;-79
2023/04/01 13:01:14;;;;;;;2.17;1.17;;;11.90;99.90;;;;;;5019786;28;20040;-78
2023/04/01 13:03:53;;;;;;;2.38;1.40;;;11.90;99.90;;;;;;5018220;28;20036;-78
2023/04/01 13:06:25;;;;;;;2.88;1.35;;;11.90;99.90;;;;;;5018466;28;20033;-78
2023/04/01 13:09:29;;;;;;;1.65;1.02;;;11.90;99.90;;;;;;5000979;28;20598;-78
2023/04/01 13:12:20;;;;;;;2.10;1.20;;;12.00;99.90;;;;;;5006594;28;21369;-79
2023/04/01 13:14:52;;;;;;;1.67;0.80;;;12.00;99.90;;;;;;5036697;28;20282;-78
2023/04/01 13:17:51;;;;;;;1.77;1.00;;;12.00;99.90;;;;;;5018804;28;20036;-77
2023/04/01 13:20:44;;;;;;;2.55;1.10;;;12.10;99.90;;;;;;4979079;28;20045;-78
2023/04/01 13:23:35;;;;;;;2.05;1.23;;;12.20;99.90;;;;;;4999268;28;20468;-78
2023/04/01 13:26:14;;;;;;;1.52;0.98;;;12.30;99.90;;;;;;5002654;28;20048;-78
2023/04/01 13:29:01;;;;;;;2.10;1.17;;;12.40;99.90;;;;;;4999197;28;20055;-78
2023/04/01 13:31:33;;;;;;;1.73;0.88;;;12.50;99.90;;;;;;5030982;28;20664;-79
2023/04/01 13:34:10;;;;;;;2.38;1.35;;;12.60;99.90;;;;;;5001760;28;20630;-80
2023/04/01 13:36:52;;;;;;;1.30;0.70;;;12.50;99.90;;;;;;5017857;28;20036;-78
2023/04/01 13:39:44;;;;;;;1.77;0.50;;;12.40;99.90;;;;;;4999048;28;20036;-79
2023/04/01 13:42:27;;;;;;;1.58;0.60;;;12.30;99.90;;;;;;4997461;28;20036;-80
2023/04/01 13:45:11;;;;;;;;;;;12.10;99.90;;;;;;5039331;28;20608;-81
2023/04/01 13:47:53;;;;;;;1.20;0.60;;;12.10;99.90;;;;;;5002840;28;20402;-81
2023/04/01 13:50:34;;;;;;;1.80;0.73;;;12.00;99.90;;;;;;4996569;28;20049;-80
2023/04/01 13:53:23;;;;;;;1.60;0.60;;;12.00;99.90;;;;;;4978966;28;20039;-81
2023/04/01 13:56:25;;;;;;;1.20;0.60;;;11.90;99.90;;;;;;4997827;28;20040;-78
2023/04/01 13:59:05;;;;;;;1.10;0.50;;;11.90;99.90;;;;;;4995348;28;20315;-81
2023/04/01 14:01:44;;;;;;;1.52;0.80;;;11.80;99.90;;;;;;5002532;28;20049;-81
2023/04/01 14:04:28;;;;;;;1.95;1.17;;;11.80;99.90;;;;;;5003210;28;20055;-79
2023/04/01 14:07:13;;;;;;;1.83;0.90;;;11.80;99.90;;;;;;5003061;28;20044;-79
2023/04/01 14:09:51;;;;;;;1.63;0.80;;;11.80;99.90;;;;;;5002116;28;20040;-80
2023/04/01 14:13:02;;;;;;;1.80;1.00;;;11.90;99.90;;;;;;5011062;28;20049;-80
2023/04/01 14:16:10;;;;;;;1.98;0.80;;;11.90;99.90;;;;;;4988429;28;20040;-79
2023/04/01 14:19:19;;;;;;;1.77;1.08;;;12.00;99.90;;;;;;5034784;28;20476;-79
2023/04/01 14:22:00;;;;;;;2.25;1.10;;;12.10;99.90;;;;;;5000380;28;20056;-79
2023/04/01 14:25:05;;;;;;;2.63;1.63;;;12.20;99.90;;;;;;5006320;28;20060;-78
2023/04/01 14:27:47;;;;;;;3.15;2.05;;;12.30;99.90;;;;;;4986820;28;20056;-79
2023/04/01 14:30:16;;;;;;;3.25;1.80;;;12.20;99.90;;;;;;5000797;28;20052;-78
2023/04/01 14:33:03;;;;;;;3.05;2.42;;;12.10;99.90;;;;;;5003170;28;20040;-79
2023/04/01 14:35:53;;;;;;;3.72;1.33;;;12.10;99.90;;;;;;4987661;28;20059;-81
2023/04/01 14:38:32;;;;;;;1.58;1.00;;;11.90;99.90;;;;;;5016033;28;20043;-78
2023/04/01 14:41:40;;;;;;;1.25;0.60;;;11.90;99.90;;;;;;4997492;28;20039;-78
2023/04/01 14:44:30;;;;;;;1.10;0.60;;;11.90;99.90;;;;;;4997456;28;20412;-79
2023/04/01 14:47:47;;;;;;;1.30;0.60;;;11.90;99.90;;;;;;5041455;28;20044;-79
2023/04/01 14:50:20;;;;;;;0.90;0.50;;;11.80;99.90;;;;;;4983308;28;20055;-78
2023/04/01 14:53:11;;;;;;;0.85;0.60;;;11.90;99.90;;;;;;4994515;28;20526;-77
2023/04/01 14:55:43;;;;;;;1.52;0.70;;;12.00;99.90;;;;;;5016084;28;20036;-77
2023/04/01 14:58:15;;;;;;;1.42;0.55;;;12.10;99.90;;;;;;5016213;28;20507;-78
2023/04/01 15:00:49;;;;;;;1.42;0.63;;;12.10;99.90;;;;;;5013874;28;20037;-78
2023/04/01 15:03:21;;;;;;;1.48;0.80;;;12.10;99.90;;;;;;5030619;28;20028;-80
2023/04/01 15:06:26;;;;;;;1.50;0.98;;;12.00;99.90;;;;;;5041113;28;20043;-77
2023/04/01 15:09:17;;;;;;;1.67;1.08;;;12.00;99.90;;;;;;5006270;28;20412;-78
2023/04/01 15:12:18;;;;;;;2.95;1.77;;;12.00;99.90;;;;;;4998474;28;20055;-78
2023/04/01 15:14:56;;;;;;;2.92;2.38;;;12.10;99.90;;;;;;4999798;28;20564;-80
2023/04/01 15:17:47;;;;;;;3.97;2.80;;;12.10;99.90;;;;;;5033691;28;20047;-77
2023/04/01 15:20:35;;;;;;;4.07;3.05;;;12.10;99.90;;;;;;5012798;28;21276;-80